Athena — 9HUA8 — position and weather

sailwx.info

Track history (hours):
 
Tides and Currents Weather Stations Pressure Air Temp Water Temp Dewpoint Dewpoint Depression Visibility Wind Speed Wind Dir Waves Ship Positions

Athena

Last reported at 2018-May-11 17:56 UTC. Time now 2018-May-21 09:15 UTC.
Position N 38°01' E 022°51'.
Warning: this ship's position is 9 days out of date.

Length 60 m; draft 3 m.

Type: Passenger vessel. MMSI: 256424000.

Date/timePositionNaut miles runAvg speedWind from/ knotsBaromVisibWave heightAir tempDewpointWater temp
2018-May-11 17:56N 38°01' E 022°51'510.8
2018-May-11 17:30N 37°58' E 022°55'5 6.7
2018-May-11 16:49N 37°55' E 023°00'1 4.2
2018-May-11 16:31N 37°55' E 023°01'4 7.8
2018-May-11 16:01N 37°54' E 023°06'5 9.3
2018-May-11 15:30N 37°53' E 023°12'5 9.8
2018-May-11 15:00N 37°52' E 023°18'510.2
2018-May-11 14:31N 37°51' E 023°24'510.7
2018-May-11 14:00N 37°50' E 023°31'510.8
2018-May-11 13:31N 37°54' E 023°35'3 5.5
2018-May-11 12:58N 37°56' E 023°38'0 0.0
2018-May-11 12:28N 37°56' E 023°38'0 0.0
2018-May-11 11:58N 37°56' E 023°38'0 0.0
2018-May-11 11:28N 37°56' E 023°38'0 0.0
2018-May-11 10:58N 37°56' E 023°38'0 0.0
2018-May-11 10:28N 37°56' E 023°38'0 0.0
2018-May-11 09:58N 37°56' E 023°38'0 0.0
2018-May-11 09:28N 37°56' E 023°38'0 0.0
2018-May-11 08:58N 37°56' E 023°38'0 0.0
2018-May-11 08:28N 37°56' E 023°38'0 0.0
2018-May-11 07:58N 37°56' E 023°38'0 0.0
2018-May-11 07:28N 37°56' E 023°38'0 0.1
2018-May-11 06:58N 37°56' E 023°38'0 0.1
2018-May-11 06:28N 37°56' E 023°38'0 0.0
2018-May-11 05:55N 37°56' E 023°38'0 0.0
2018-May-11 05:28N 37°56' E 023°38'0 0.0
2018-May-11 04:58N 37°56' E 023°38'0 0.0
2018-May-11 04:28N 37°56' E 023°38'0 0.0
2018-May-11 04:00N 37°56' E 023°38'1 2.9
2018-May-11 03:30N 37°55' E 023°37'4 7.3
2018-May-11 03:00N 37°52' E 023°39'5 9.0
2018-May-11 02:30N 37°48' E 023°41'6110.0
2018-May-10 20:25N 37°16' E 024°47'511.2
2018-May-10 20:00N 37°15' E 024°52'611.3
2018-May-10 19:30N 37°14' E 024°59'811.3
2018-May-10 18:49N 37°12' E 025°09'610.8
2018-May-10 18:15N 37°11' E 025°17'2 9.7
2018-May-10 18:00N 37°10' E 025°19'4 8.3
2018-May-10 17:30N 37°06' E 025°22'0 0.0
2018-May-10 16:59N 37°06' E 025°22'0 0.0
2018-May-10 16:23N 37°06' E 025°22'0 0.0
2018-May-10 15:56N 37°06' E 025°22'0 0.0
2018-May-10 15:29N 37°06' E 025°22'0 0.0
2018-May-10 14:59N 37°06' E 025°22'0 0.0
2018-May-10 14:29N 37°06' E 025°22'0 0.0
2018-May-10 13:59N 37°06' E 025°22'0 0.0
2018-May-10 13:29N 37°06' E 025°22'0 0.0
2018-May-10 12:59N 37°06' E 025°22'0 0.0
2018-May-10 12:29N 37°06' E 025°22'0 0.0
2018-May-10 11:50N 37°06' E 025°22'0 0.0
2018-May-10 11:29N 37°06' E 025°22'0 0.0
2018-May-10 10:59N 37°06' E 025°22'0 0.0
2018-May-10 10:29N 37°06' E 025°22'0 0.0
2018-May-10 09:59N 37°06' E 025°22'0 0.0
2018-May-10 09:29N 37°06' E 025°22'0 0.0
2018-May-10 08:59N 37°06' E 025°22'0 0.0
2018-May-10 08:26N 37°06' E 025°22'0 0.0
2018-May-10 07:59N 37°06' E 025°22'0 0.0
2018-May-10 07:29N 37°06' E 025°22'0 0.0
2018-May-10 06:59N 37°06' E 025°22'0 0.0
2018-May-10 06:29N 37°06' E 025°22'0 0.0
2018-May-10 05:59N 37°06' E 025°22'0 0.0
2018-May-10 05:29N 37°06' E 025°22'0 0.0
2018-May-10 04:59N 37°06' E 025°22'0 0.0
2018-May-10 04:25N 37°06' E 025°22'0 0.3
2018-May-10 04:00N 37°06' E 025°22'4 7.9
2018-May-10 03:30N 37°04' E 025°18'  
2018-May-06 12:53N 37°29' E 025°56'1710.4
2018-May-06 11:14N 37°26' E 025°34'210.1
2018-May-06 11:00N 37°26' E 025°31'510.2
2018-May-06 10:31N 37°24' E 025°26'510.2
2018-May-06 10:00N 37°22' E 025°19'3 6.2
2018-May-06 09:30N 37°23' E 025°16'0 0.1
2018-May-06 09:00N 37°23' E 025°16'0 0.0
2018-May-06 08:30N 37°23' E 025°16'0 0.0
2018-May-06 08:00N 37°23' E 025°16'0 0.0
2018-May-06 07:30N 37°23' E 025°16'0 0.0
2018-May-06 06:57N 37°23' E 025°16'0 0.0
2018-May-06 06:30N 37°23' E 025°16'0 0.0
2018-May-06 06:00N 37°23' E 025°16'0 0.1
2018-May-06 05:27N 37°23' E 025°16'0 0.1
2018-May-06 04:58N 37°23' E 025°16'1 2.7
2018-May-06 04:30N 37°22' E 025°17'5 9.4
2018-May-06 04:00N 37°27' E 025°17'2 3.1
2018-May-06 03:28N 37°27' E 025°19'0 0.0
2018-May-06 02:58N 37°27' E 025°19'0 0.0
2018-May-06 02:28N 37°27' E 025°19'0 0.0
2018-May-06 01:58N 37°27' E 025°19'0 0.0
2018-May-06 01:28N 37°27' E 025°19'0 0.0
2018-May-06 00:58N 37°27' E 025°19'0 0.0
2018-May-06 00:28N 37°27' E 025°19'0 0.0
2018-May-05 23:58N 37°27' E 025°19'0 0.0
2018-May-05 23:28N 37°27' E 025°19'0 0.0
2018-May-05 22:52N 37°27' E 025°19'0 0.0
2018-May-05 22:28N 37°27' E 025°19'0 0.0
2018-May-05 21:58N 37°27' E 025°19'0 0.0
2018-May-05 21:28N 37°27' E 025°19'0 0.0
2018-May-05 20:58N 37°27' E 025°19'0 0.0
2018-May-05 20:28N 37°27' E 025°19'0 0.0
2018-May-05 19:55N 37°27' E 025°19'0 0.0
2018-May-05 19:28N 37°27' E 025°19'0 0.0
2018-May-05 18:58N 37°27' E 025°19'0 0.0
2018-May-05 18:25N 37°27' E 025°19'0 0.0
2018-May-05 17:55N 37°27' E 025°19'0 0.0
2018-May-05 17:28N 37°27' E 025°19'0 0.0
2018-May-05 16:58N 37°27' E 025°19'0 0.1
2018-May-05 16:28N 37°27' E 025°19'0 0.0
2018-May-05 15:58N 37°27' E 025°19'0 0.0
2018-May-05 15:28N 37°27' E 025°19'0 0.0
2018-May-05 14:58N 37°27' E 025°19'0 0.0
2018-May-05 14:28N 37°27' E 025°19'0 0.0
2018-May-05 13:58N 37°27' E 025°19'0 0.0
2018-May-05 13:28N 37°27' E 025°19'0 0.0
2018-May-05 12:58N 37°27' E 025°19'0 0.0
2018-May-05 12:28N 37°27' E 025°19'1 2.0
2018-May-05 12:01N 37°27' E 025°18'4 8.8
2018-May-05 11:30N 37°27' E 025°13'5 9.0
2018-May-05 11:00N 37°27' E 025°07'7 8.7
2018-May-05 10:10N 37°26' E 024°58'1 0.1
2018-May-05 04:22N 37°26' E 024°57'1 1.6
2018-May-05 03:59N 37°26' E 024°57'4 8.9
2018-May-05 03:30N 37°31' E 024°57'5 9.9
2018-May-05 03:00N 37°32' E 024°50'510.2
2018-May-05 02:30N 37°31' E 024°44'49 9.8
2018-May-04 21:29N 37°40' E 023°43'5 9.8
2018-May-04 20:59N 37°44' E 023°40'510.3
2018-May-04 20:31N 37°48' E 023°37'5 9.8
2018-May-04 20:00N 37°53' E 023°37'3 6.1
2018-May-04 19:28N 37°56' E 023°38'0 0.0
2018-May-04 18:58N 37°56' E 023°38'0 0.0
2018-May-04 18:28N 37°56' E 023°38'0 0.0
2018-May-04 17:58N 37°56' E 023°38'0 0.0
2018-May-04 17:25N 37°56' E 023°38'0 0.0
2018-May-04 16:58N 37°56' E 023°38'0 0.0
2018-May-04 16:28N 37°56' E 023°38'0 0.0
2018-May-04 15:55N 37°56' E 023°38'0 0.0
2018-May-04 15:28N 37°56' E 023°38'0 0.0
2018-May-04 14:58N 37°56' E 023°38'0 0.0
2018-May-04 14:28N 37°56' E 023°38'0 0.0
2018-May-04 13:58N 37°56' E 023°38'0 0.0
2018-May-04 13:28N 37°56' E 023°38'0 0.0
2018-May-04 12:55N 37°56' E 023°38'0 0.0
2018-May-04 12:28N 37°56' E 023°38'0 0.0
2018-May-04 11:58N 37°56' E 023°38'0 0.0
2018-May-04 11:28N 37°56' E 023°38'0 0.0
2018-May-04 10:55N 37°56' E 023°38'0 0.0
2018-May-04 10:28N 37°56' E 023°38'0 0.0
2018-May-04 09:58N 37°56' E 023°38'0 0.0
2018-May-04 09:25N 37°56' E 023°38'0 0.0
2018-May-04 08:58N 37°56' E 023°38'0 0.0
2018-May-04 08:28N 37°56' E 023°38'0 0.0
2018-May-04 07:58N 37°56' E 023°38'0 0.0
2018-May-04 07:28N 37°56' E 023°38'0 0.0
2018-May-04 06:58N 37°56' E 023°38'0 0.0
2018-May-04 06:28N 37°56' E 023°38'0 0.0
2018-May-04 05:49N 37°56' E 023°38'0 0.0
2018-May-04 05:28N 37°56' E 023°38'0 0.0
2018-May-04 04:55N 37°56' E 023°38'0 0.0
2018-May-04 04:25N 37°56' E 023°38'0 0.0
2018-May-04 03:58N 37°56' E 023°38'1 2.8
2018-May-04 03:30N 37°56' E 023°37'510.2
2018-May-04 03:00N 37°51' E 023°39'510.8
2018-May-04 02:31N 37°46' E 023°42'610.5
2018-May-04 01:56N 37°41' E 023°45'55 9.8
2018-May-03 20:17N 37°15' E 024°47'310.2
2018-May-03 20:01N 37°15' E 024°51'510.2
2018-May-03 19:30N 37°14' E 024°57'510.4
2018-May-03 19:01N 37°13' E 025°03'510.3
2018-May-03 18:30N 37°12' E 025°10'510.0
2018-May-03 18:01N 37°11' E 025°16'5 9.1
2018-May-03 17:30N 37°08' E 025°20'2 4.4
2018-May-03 17:00N 37°06' E 025°22'0 0.0
2018-May-03 16:30N 37°06' E 025°22'0 0.0
2018-May-03 16:00N 37°06' E 025°22'0 0.0
2018-May-03 15:30N 37°06' E 025°22'0 0.0
2018-May-03 15:00N 37°06' E 025°22'0 0.0
2018-May-03 14:30N 37°06' E 025°22'0 0.0
2018-May-03 14:00N 37°06' E 025°22'0 0.0
2018-May-03 13:30N 37°06' E 025°22'0 0.0
2018-May-03 13:00N 37°06' E 025°22'0 0.0
2018-May-03 12:27N 37°06' E 025°22'0 0.0
2018-May-03 12:00N 37°06' E 025°22'0 0.0
2018-May-03 11:30N 37°06' E 025°22'0 0.0
2018-May-03 10:57N 37°06' E 025°22'0 0.0
2018-May-03 10:30N 37°06' E 025°22'0 0.0
2018-May-03 10:00N 37°06' E 025°22'0 0.0
2018-May-03 09:30N 37°06' E 025°22'0 0.0
2018-May-03 09:00N 37°06' E 025°22'0 0.0
2018-May-03 08:30N 37°06' E 025°22'0 0.0
2018-May-03 08:00N 37°06' E 025°22'0 0.0
2018-May-03 07:30N 37°06' E 025°22'0 0.0
2018-May-03 07:00N 37°06' E 025°22'0 0.0
2018-May-03 06:30N 37°06' E 025°22'0 0.0
2018-May-03 06:00N 37°06' E 025°22'0 0.0
2018-May-03 05:27N 37°06' E 025°22'0 0.0
2018-May-03 05:00N 37°06' E 025°22'0 0.0
2018-May-03 04:30N 37°06' E 025°22'2 4.8
2018-May-03 04:00N 37°06' E 025°20'4 9.0
2018-May-03 03:30N 37°01' E 025°17'  
Track history (hours):
 
Tides and Currents Weather Stations Pressure Air Temp Water Temp Dewpoint Dewpoint Depression Visibility Wind Speed Wind Dir Waves Ship Positions

Athena

Last reported at 2018-May-11 17:56 UTC. Time now 2018-May-21 09:15 UTC.
Position N 38°01' E 022°51'.
Warning: this ship's position is 9 days out of date.

Length 60 m; draft 3 m.

Type: Passenger vessel. MMSI: 256424000.

Date/timePositionNaut miles runAvg speedWind from/ knotsBaromVisibWave heightAir tempDewpointWater temp
2018-May-11 17:56N 38°01' E 022°51'510.8
2018-May-11 17:30N 37°58' E 022°55'5 6.7
2018-May-11 16:49N 37°55' E 023°00'1 4.2
2018-May-11 16:31N 37°55' E 023°01'4 7.8
2018-May-11 16:01N 37°54' E 023°06'5 9.3
2018-May-11 15:30N 37°53' E 023°12'5 9.8
2018-May-11 15:00N 37°52' E 023°18'510.2
2018-May-11 14:31N 37°51' E 023°24'510.7
2018-May-11 14:00N 37°50' E 023°31'510.8
2018-May-11 13:31N 37°54' E 023°35'3 5.5
2018-May-11 12:58N 37°56' E 023°38'0 0.0
2018-May-11 12:28N 37°56' E 023°38'0 0.0
2018-May-11 11:58N 37°56' E 023°38'0 0.0
2018-May-11 11:28N 37°56' E 023°38'0 0.0
2018-May-11 10:58N 37°56' E 023°38'0 0.0
2018-May-11 10:28N 37°56' E 023°38'0 0.0
2018-May-11 09:58N 37°56' E 023°38'0 0.0
2018-May-11 09:28N 37°56' E 023°38'0 0.0
2018-May-11 08:58N 37°56' E 023°38'0 0.0
2018-May-11 08:28N 37°56' E 023°38'0 0.0
2018-May-11 07:58N 37°56' E 023°38'0 0.0
2018-May-11 07:28N 37°56' E 023°38'0 0.1
2018-May-11 06:58N 37°56' E 023°38'0 0.1
2018-May-11 06:28N 37°56' E 023°38'0 0.0
2018-May-11 05:55N 37°56' E 023°38'0 0.0
2018-May-11 05:28N 37°56' E 023°38'0 0.0
2018-May-11 04:58N 37°56' E 023°38'0 0.0
2018-May-11 04:28N 37°56' E 023°38'0 0.0
2018-May-11 04:00N 37°56' E 023°38'1 2.9
2018-May-11 03:30N 37°55' E 023°37'4 7.3
2018-May-11 03:00N 37°52' E 023°39'5 9.0
2018-May-11 02:30N 37°48' E 023°41'6110.0
2018-May-10 20:25N 37°16' E 024°47'511.2
2018-May-10 20:00N 37°15' E 024°52'611.3
2018-May-10 19:30N 37°14' E 024°59'811.3
2018-May-10 18:49N 37°12' E 025°09'610.8
2018-May-10 18:15N 37°11' E 025°17'2 9.7
2018-May-10 18:00N 37°10' E 025°19'4 8.3
2018-May-10 17:30N 37°06' E 025°22'0 0.0
2018-May-10 16:59N 37°06' E 025°22'0 0.0
2018-May-10 16:23N 37°06' E 025°22'0 0.0
2018-May-10 15:56N 37°06' E 025°22'0 0.0
2018-May-10 15:29N 37°06' E 025°22'0 0.0
2018-May-10 14:59N 37°06' E 025°22'0 0.0
2018-May-10 14:29N 37°06' E 025°22'0 0.0
2018-May-10 13:59N 37°06' E 025°22'0 0.0
2018-May-10 13:29N 37°06' E 025°22'0 0.0
2018-May-10 12:59N 37°06' E 025°22'0 0.0
2018-May-10 12:29N 37°06' E 025°22'0 0.0
2018-May-10 11:50N 37°06' E 025°22'0 0.0
2018-May-10 11:29N 37°06' E 025°22'0 0.0
2018-May-10 10:59N 37°06' E 025°22'0 0.0
2018-May-10 10:29N 37°06' E 025°22'0 0.0
2018-May-10 09:59N 37°06' E 025°22'0 0.0
2018-May-10 09:29N 37°06' E 025°22'0 0.0
2018-May-10 08:59N 37°06' E 025°22'0 0.0
2018-May-10 08:26N 37°06' E 025°22'0 0.0
2018-May-10 07:59N 37°06' E 025°22'0 0.0
2018-May-10 07:29N 37°06' E 025°22'0 0.0
2018-May-10 06:59N 37°06' E 025°22'0 0.0
2018-May-10 06:29N 37°06' E 025°22'0 0.0
2018-May-10 05:59N 37°06' E 025°22'0 0.0
2018-May-10 05:29N 37°06' E 025°22'0 0.0
2018-May-10 04:59N 37°06' E 025°22'0 0.0
2018-May-10 04:25N 37°06' E 025°22'0 0.3
2018-May-10 04:00N 37°06' E 025°22'4 7.9
2018-May-10 03:30N 37°04' E 025°18'  
2018-May-06 12:53N 37°29' E 025°56'1710.4
2018-May-06 11:14N 37°26' E 025°34'210.1
2018-May-06 11:00N 37°26' E 025°31'510.2
2018-May-06 10:31N 37°24' E 025°26'510.2
2018-May-06 10:00N 37°22' E 025°19'3 6.2
2018-May-06 09:30N 37°23' E 025°16'0 0.1
2018-May-06 09:00N 37°23' E 025°16'0 0.0
2018-May-06 08:30N 37°23' E 025°16'0 0.0
2018-May-06 08:00N 37°23' E 025°16'0 0.0
2018-May-06 07:30N 37°23' E 025°16'0 0.0
2018-May-06 06:57N 37°23' E 025°16'0 0.0
2018-May-06 06:30N 37°23' E 025°16'0 0.0
2018-May-06 06:00N 37°23' E 025°16'0 0.1
2018-May-06 05:27N 37°23' E 025°16'0 0.1
2018-May-06 04:58N 37°23' E 025°16'1 2.7
2018-May-06 04:30N 37°22' E 025°17'5 9.4
2018-May-06 04:00N 37°27' E 025°17'2 3.1
2018-May-06 03:28N 37°27' E 025°19'0 0.0
2018-May-06 02:58N 37°27' E 025°19'0 0.0
2018-May-06 02:28N 37°27' E 025°19'0 0.0
2018-May-06 01:58N 37°27' E 025°19'0 0.0
2018-May-06 01:28N 37°27' E 025°19'0 0.0
2018-May-06 00:58N 37°27' E 025°19'0 0.0
2018-May-06 00:28N 37°27' E 025°19'0 0.0
2018-May-05 23:58N 37°27' E 025°19'0 0.0
2018-May-05 23:28N 37°27' E 025°19'0 0.0
2018-May-05 22:52N 37°27' E 025°19'0 0.0
2018-May-05 22:28N 37°27' E 025°19'0 0.0
2018-May-05 21:58N 37°27' E 025°19'0 0.0
2018-May-05 21:28N 37°27' E 025°19'0 0.0
2018-May-05 20:58N 37°27' E 025°19'0 0.0
2018-May-05 20:28N 37°27' E 025°19'0 0.0
2018-May-05 19:55N 37°27' E 025°19'0 0.0
2018-May-05 19:28N 37°27' E 025°19'0 0.0
2018-May-05 18:58N 37°27' E 025°19'0 0.0
2018-May-05 18:25N 37°27' E 025°19'0 0.0
2018-May-05 17:55N 37°27' E 025°19'0 0.0
2018-May-05 17:28N 37°27' E 025°19'0 0.0
2018-May-05 16:58N 37°27' E 025°19'0 0.1
2018-May-05 16:28N 37°27' E 025°19'0 0.0
2018-May-05 15:58N 37°27' E 025°19'0 0.0
2018-May-05 15:28N 37°27' E 025°19'0 0.0
2018-May-05 14:58N 37°27' E 025°19'0 0.0
2018-May-05 14:28N 37°27' E 025°19'0 0.0
2018-May-05 13:58N 37°27' E 025°19'0 0.0
2018-May-05 13:28N 37°27' E 025°19'0 0.0
2018-May-05 12:58N 37°27' E 025°19'0 0.0
2018-May-05 12:28N 37°27' E 025°19'1 2.0
2018-May-05 12:01N 37°27' E 025°18'4 8.8
2018-May-05 11:30N 37°27' E 025°13'5 9.0
2018-May-05 11:00N 37°27' E 025°07'7 8.7
2018-May-05 10:10N 37°26' E 024°58'1 0.1
2018-May-05 04:22N 37°26' E 024°57'1 1.6
2018-May-05 03:59N 37°26' E 024°57'4 8.9
2018-May-05 03:30N 37°31' E 024°57'5 9.9
2018-May-05 03:00N 37°32' E 024°50'510.2
2018-May-05 02:30N 37°31' E 024°44'49 9.8
2018-May-04 21:29N 37°40' E 023°43'5 9.8
2018-May-04 20:59N 37°44' E 023°40'510.3
2018-May-04 20:31N 37°48' E 023°37'5 9.8
2018-May-04 20:00N 37°53' E 023°37'3 6.1
2018-May-04 19:28N 37°56' E 023°38'0 0.0
2018-May-04 18:58N 37°56' E 023°38'0 0.0
2018-May-04 18:28N 37°56' E 023°38'0 0.0
2018-May-04 17:58N 37°56' E 023°38'0 0.0
2018-May-04 17:25N 37°56' E 023°38'0 0.0
2018-May-04 16:58N 37°56' E 023°38'0 0.0
2018-May-04 16:28N 37°56' E 023°38'0 0.0
2018-May-04 15:55N 37°56' E 023°38'0 0.0
2018-May-04 15:28N 37°56' E 023°38'0 0.0
2018-May-04 14:58N 37°56' E 023°38'0 0.0
2018-May-04 14:28N 37°56' E 023°38'0 0.0
2018-May-04 13:58N 37°56' E 023°38'0 0.0
2018-May-04 13:28N 37°56' E 023°38'0 0.0
2018-May-04 12:55N 37°56' E 023°38'0 0.0
2018-May-04 12:28N 37°56' E 023°38'0 0.0
2018-May-04 11:58N 37°56' E 023°38'0 0.0
2018-May-04 11:28N 37°56' E 023°38'0 0.0
2018-May-04 10:55N 37°56' E 023°38'0 0.0
2018-May-04 10:28N 37°56' E 023°38'0 0.0
2018-May-04 09:58N 37°56' E 023°38'0 0.0
2018-May-04 09:25N 37°56' E 023°38'0 0.0
2018-May-04 08:58N 37°56' E 023°38'0 0.0
2018-May-04 08:28N 37°56' E 023°38'0 0.0
2018-May-04 07:58N 37°56' E 023°38'0 0.0
2018-May-04 07:28N 37°56' E 023°38'0 0.0
2018-May-04 06:58N 37°56' E 023°38'0 0.0
2018-May-04 06:28N 37°56' E 023°38'0 0.0
2018-May-04 05:49N 37°56' E 023°38'0 0.0
2018-May-04 05:28N 37°56' E 023°38'0 0.0
2018-May-04 04:55N 37°56' E 023°38'0 0.0
2018-May-04 04:25N 37°56' E 023°38'0 0.0
2018-May-04 03:58N 37°56' E 023°38'1 2.8
2018-May-04 03:30N 37°56' E 023°37'510.2
2018-May-04 03:00N 37°51' E 023°39'510.8
2018-May-04 02:31N 37°46' E 023°42'610.5
2018-May-04 01:56N 37°41' E 023°45'55 9.8
2018-May-03 20:17N 37°15' E 024°47'310.2
2018-May-03 20:01N 37°15' E 024°51'510.2
2018-May-03 19:30N 37°14' E 024°57'510.4
2018-May-03 19:01N 37°13' E 025°03'510.3
2018-May-03 18:30N 37°12' E 025°10'510.0
2018-May-03 18:01N 37°11' E 025°16'5 9.1
2018-May-03 17:30N 37°08' E 025°20'2 4.4
2018-May-03 17:00N 37°06' E 025°22'0 0.0
2018-May-03 16:30N 37°06' E 025°22'0 0.0
2018-May-03 16:00N 37°06' E 025°22'0 0.0
2018-May-03 15:30N 37°06' E 025°22'0 0.0
2018-May-03 15:00N 37°06' E 025°22'0 0.0
2018-May-03 14:30N 37°06' E 025°22'0 0.0
2018-May-03 14:00N 37°06' E 025°22'0 0.0
2018-May-03 13:30N 37°06' E 025°22'0 0.0
2018-May-03 13:00N 37°06' E 025°22'0 0.0
2018-May-03 12:27N 37°06' E 025°22'0 0.0
2018-May-03 12:00N 37°06' E 025°22'0 0.0
2018-May-03 11:30N 37°06' E 025°22'0 0.0
2018-May-03 10:57N 37°06' E 025°22'0 0.0
2018-May-03 10:30N 37°06' E 025°22'0 0.0
2018-May-03 10:00N 37°06' E 025°22'0 0.0
2018-May-03 09:30N 37°06' E 025°22'0 0.0
2018-May-03 09:00N 37°06' E 025°22'0 0.0
2018-May-03 08:30N 37°06' E 025°22'0 0.0
2018-May-03 08:00N 37°06' E 025°22'0 0.0
2018-May-03 07:30N 37°06' E 025°22'0 0.0
2018-May-03 07:00N 37°06' E 025°22'0 0.0
2018-May-03 06:30N 37°06' E 025°22'0 0.0
2018-May-03 06:00N 37°06' E 025°22'0 0.0
2018-May-03 05:27N 37°06' E 025°22'0 0.0
2018-May-03 05:00N 37°06' E 025°22'0 0.0
2018-May-03 04:30N 37°06' E 025°22'2 4.8
2018-May-03 04:00N 37°06' E 025°20'4 9.0
2018-May-03 03:30N 37°01' E 025°17'  

Dump ship's entire track history